QFA133 YBBN-NZCH
Flight info
| Callsign | QFA133 |
|---|---|
| Flight time | 2h 45m |
| Altitude | 39000 |
| Route | SCOTT Y76 SIFRA L503 KABKA |
| Aircraft | A21N/M-SDE2E3FGHIRWXY/LB1 |
Departure
| Time | 2026-05-06 04:20 |
|---|---|
| Airport | Brisbane International Airport (YBBN) |
Arrival
| Time | 2026-05-06 07:05 |
|---|---|
| Airport | Christchurch International Airport (NZCH) |
| Time | Latitude | Longitude | Altitude | Speed | Heading |
|---|---|---|---|---|---|
| 2026-05-06 04:14 | -27.38333 | 153.12299 | 21 ft | 0 kts | 289° |
| 2026-05-06 04:17 | -27.38334 | 153.12302 | 21 ft | 3 kts | 289° |
| 2026-05-06 04:17 | -27.38340 | 153.12322 | 22 ft | 3 kts | 289° |
| 2026-05-06 04:17 | -27.38346 | 153.12342 | 22 ft | 3 kts | 289° |
| 2026-05-06 04:18 | -27.38354 | 153.12359 | 22 ft | 3 kts | 327° |
| 2026-05-06 04:18 | -27.38371 | 153.12363 | 22 ft | 1 kts | 27° |
| 2026-05-06 04:18 | -27.38367 | 153.12367 | 22 ft | 1 kts | 44° |
| 2026-05-06 04:18 | -27.38360 | 153.12497 | 21 ft | 30 kts | 98° |
| 2026-05-06 04:19 | -27.38414 | 153.12693 | 22 ft | 26 kts | 116° |
| 2026-05-06 04:19 | -27.38554 | 153.12800 | 23 ft | 35 kts | 192° |
| 2026-05-06 04:19 | -27.39008 | 153.12552 | 19 ft | 122 kts | 206° |
| 2026-05-06 04:19 | -27.40044 | 153.11995 | 206 ft | 197 kts | 201° |
| 2026-05-06 04:20 | -27.41514 | 153.11747 | 745 ft | 230 kts | 167° |
| 2026-05-06 04:20 | -27.43089 | 153.12237 | 2016 ft | 240 kts | 159° |
| 2026-05-06 04:20 | -27.44624 | 153.13072 | 3271 ft | 252 kts | 145° |
| 2026-05-06 04:20 | -27.45925 | 153.14414 | 4781 ft | 257 kts | 132° |
| 2026-05-06 04:21 | -27.47070 | 153.16011 | 6099 ft | 267 kts | 127° |
| 2026-05-06 04:21 | -27.48188 | 153.17730 | 7408 ft | 276 kts | 126° |
| 2026-05-06 04:21 | -27.49327 | 153.19534 | 8658 ft | 289 kts | 126° |
| 2026-05-06 04:21 | -27.50515 | 153.21428 | 9863 ft | 302 kts | 126° |
| 2026-05-06 04:22 | -27.51750 | 153.23409 | 10909 ft | 321 kts | 126° |
| 2026-05-06 04:22 | -27.53091 | 153.25557 | 11458 ft | 356 kts | 126° |
| 2026-05-06 04:22 | -27.54585 | 153.27950 | 11970 ft | 387 kts | 125° |
| 2026-05-06 04:23 | -27.57268 | 153.32255 | 13490 ft | 412 kts | 125° |
| 2026-05-06 04:23 | -27.58934 | 153.34930 | 14483 ft | 421 kts | 125° |
| 2026-05-06 04:23 | -27.60643 | 153.37677 | 15357 ft | 432 kts | 125° |
| 2026-05-06 04:23 | -27.62393 | 153.40490 | 16213 ft | 442 kts | 125° |
| 2026-05-06 04:24 | -27.64160 | 153.43333 | 17075 ft | 453 kts | 125° |
| 2026-05-06 04:24 | -27.65988 | 153.46276 | 17796 ft | 464 kts | 125° |
| 2026-05-06 04:24 | -27.67857 | 153.49288 | 18468 ft | 473 kts | 125° |
| 2026-05-06 04:24 | -27.69768 | 153.52369 | 19105 ft | 479 kts | 125° |
| 2026-05-06 04:25 | -27.71668 | 153.55435 | 19782 ft | 483 kts | 125° |
| 2026-05-06 04:25 | -27.73604 | 153.58561 | 20463 ft | 486 kts | 125° |
| 2026-05-06 04:25 | -27.75562 | 153.61724 | 21038 ft | 491 kts | 126° |
| 2026-05-06 04:25 | -27.77505 | 153.64866 | 21577 ft | 496 kts | 126° |
| 2026-05-06 04:26 | -27.79496 | 153.68088 | 22107 ft | 500 kts | 126° |
| 2026-05-06 04:26 | -27.81497 | 153.71330 | 22638 ft | 505 kts | 126° |
| 2026-05-06 04:26 | -27.83522 | 153.74610 | 23119 ft | 509 kts | 126° |
| 2026-05-06 04:26 | -27.85554 | 153.77900 | 23603 ft | 514 kts | 126° |
| 2026-05-06 04:27 | -27.87738 | 153.81068 | 23907 ft | 519 kts | 131° |
| 2026-05-06 04:27 | -27.90126 | 153.84152 | 24342 ft | 521 kts | 134° |
| 2026-05-06 04:27 | -27.92601 | 153.87180 | 24686 ft | 526 kts | 135° |
| 2026-05-06 04:27 | -27.95135 | 153.90205 | 24850 ft | 534 kts | 135° |
| 2026-05-06 04:28 | -27.97712 | 153.93265 | 25067 ft | 539 kts | 135° |
| 2026-05-06 04:28 | -28.00307 | 153.96359 | 25440 ft | 540 kts | 135° |
| 2026-05-06 04:28 | -28.02854 | 153.99416 | 25888 ft | 540 kts | 135° |
| 2026-05-06 04:28 | -28.05431 | 154.02530 | 26335 ft | 540 kts | 135° |
| 2026-05-06 04:29 | -28.07996 | 154.05641 | 26784 ft | 540 kts | 135° |
| 2026-05-06 04:29 | -28.10556 | 154.08757 | 27236 ft | 540 kts | 135° |
| 2026-05-06 04:29 | -28.13113 | 154.11874 | 27693 ft | 540 kts | 135° |
| 2026-05-06 04:29 | -28.15675 | 154.15001 | 28141 ft | 540 kts | 135° |
| 2026-05-06 04:30 | -28.18236 | 154.18126 | 28594 ft | 540 kts | 135° |
| 2026-05-06 04:30 | -28.20766 | 154.21216 | 29039 ft | 540 kts | 135° |
| 2026-05-06 04:30 | -28.23321 | 154.24339 | 29504 ft | 540 kts | 135° |
| 2026-05-06 04:30 | -28.25882 | 154.27470 | 29973 ft | 540 kts | 136° |
| 2026-05-06 04:31 | -28.28440 | 154.30600 | 30387 ft | 540 kts | 136° |
| 2026-05-06 04:31 | -28.31001 | 154.33737 | 30753 ft | 541 kts | 136° |
| 2026-05-06 04:31 | -28.33566 | 154.36879 | 31098 ft | 542 kts | 136° |
| 2026-05-06 04:31 | -28.36106 | 154.39993 | 31475 ft | 543 kts | 136° |
| 2026-05-06 04:32 | -28.38694 | 154.43169 | 31837 ft | 545 kts | 136° |
| 2026-05-06 04:32 | -28.41238 | 154.46294 | 32192 ft | 546 kts | 136° |
| 2026-05-06 04:32 | -28.43816 | 154.49462 | 32584 ft | 547 kts | 136° |
| 2026-05-06 04:32 | -28.46408 | 154.52650 | 32917 ft | 549 kts | 137° |
| 2026-05-06 04:33 | -28.48995 | 154.55835 | 33269 ft | 550 kts | 137° |
| 2026-05-06 04:33 | -28.51578 | 154.59017 | 33635 ft | 550 kts | 137° |
| 2026-05-06 04:33 | -28.54178 | 154.62223 | 33996 ft | 551 kts | 137° |
| 2026-05-06 04:33 | -28.56780 | 154.65435 | 34300 ft | 552 kts | 137° |
| 2026-05-06 04:34 | -28.59383 | 154.68650 | 34599 ft | 552 kts | 137° |
| 2026-05-06 04:34 | -28.61969 | 154.71848 | 34931 ft | 551 kts | 137° |
| 2026-05-06 04:34 | -28.64585 | 154.75085 | 35233 ft | 552 kts | 137° |
| 2026-05-06 04:34 | -28.67193 | 154.78313 | 35506 ft | 552 kts | 137° |
| 2026-05-06 04:35 | -28.69768 | 154.81503 | 35780 ft | 553 kts | 137° |
| 2026-05-06 04:35 | -28.72372 | 154.84731 | 36048 ft | 553 kts | 138° |
| 2026-05-06 04:35 | -28.74984 | 154.87971 | 36298 ft | 554 kts | 138° |
| 2026-05-06 04:35 | -28.77596 | 154.91215 | 36567 ft | 555 kts | 138° |
| 2026-05-06 04:36 | -28.80209 | 154.94462 | 36852 ft | 555 kts | 138° |
| 2026-05-06 04:36 | -28.82823 | 154.97713 | 37122 ft | 555 kts | 138° |
| 2026-05-06 04:36 | -28.85410 | 155.00934 | 37395 ft | 555 kts | 138° |
| 2026-05-06 04:36 | -28.88024 | 155.04192 | 37664 ft | 555 kts | 138° |
| 2026-05-06 04:37 | -28.90638 | 155.07451 | 37922 ft | 556 kts | 138° |
| 2026-05-06 04:37 | -28.93255 | 155.10716 | 38163 ft | 556 kts | 138° |
| 2026-05-06 04:37 | -28.95874 | 155.13986 | 38400 ft | 557 kts | 139° |
| 2026-05-06 04:37 | -28.98456 | 155.17213 | 38636 ft | 557 kts | 139° |
| 2026-05-06 04:38 | -29.01078 | 155.20492 | 38849 ft | 558 kts | 139° |
| 2026-05-06 04:38 | -29.03691 | 155.23764 | 39073 ft | 556 kts | 139° |
| 2026-05-06 04:38 | -29.06300 | 155.27036 | 39115 ft | 554 kts | 139° |
| 2026-05-06 04:39 | -29.11495 | 155.33555 | 39078 ft | 555 kts | 139° |
| 2026-05-06 04:39 | -29.16669 | 155.40054 | 39088 ft | 555 kts | 138° |
| 2026-05-06 04:40 | -29.21870 | 155.46598 | 39080 ft | 555 kts | 138° |
| 2026-05-06 04:40 | -29.27071 | 155.53154 | 39077 ft | 555 kts | 138° |
| 2026-05-06 04:41 | -29.32240 | 155.59680 | 39074 ft | 555 kts | 138° |
| 2026-05-06 04:41 | -29.37437 | 155.66253 | 39072 ft | 555 kts | 138° |
| 2026-05-06 04:42 | -29.42623 | 155.72822 | 39077 ft | 555 kts | 138° |
| 2026-05-06 04:42 | -29.47778 | 155.79363 | 39075 ft | 555 kts | 138° |
| 2026-05-06 04:43 | -29.52955 | 155.85942 | 39075 ft | 554 kts | 138° |
| 2026-05-06 04:43 | -29.58105 | 155.92498 | 39072 ft | 554 kts | 138° |
| 2026-05-06 04:44 | -29.63267 | 155.99080 | 39070 ft | 554 kts | 138° |
| 2026-05-06 04:44 | -29.68424 | 156.05666 | 39069 ft | 553 kts | 138° |
| 2026-05-06 04:45 | -29.73551 | 156.12225 | 39070 ft | 553 kts | 138° |
| 2026-05-06 04:45 | -29.78704 | 156.18821 | 39067 ft | 553 kts | 139° |
| 2026-05-06 04:46 | -29.84326 | 156.24724 | 39097 ft | 545 kts | 146° |
| 2026-05-06 04:46 | -29.90051 | 156.30355 | 39070 ft | 542 kts | 147° |
| 2026-05-06 04:47 | -29.95832 | 156.35950 | 39069 ft | 541 kts | 148° |
| 2026-05-06 04:47 | -30.01609 | 156.41550 | 39070 ft | 541 kts | 147° |
| 2026-05-06 04:48 | -30.07346 | 156.47139 | 39072 ft | 541 kts | 147° |
| 2026-05-06 04:48 | -30.13096 | 156.52758 | 39072 ft | 541 kts | 147° |
| 2026-05-06 04:49 | -30.18845 | 156.58387 | 39077 ft | 541 kts | 147° |
| 2026-05-06 04:49 | -30.24586 | 156.64018 | 39071 ft | 540 kts | 147° |
| 2026-05-06 04:50 | -30.30297 | 156.69625 | 39067 ft | 540 kts | 147° |
| 2026-05-06 04:50 | -30.35994 | 156.75228 | 39076 ft | 540 kts | 147° |
| 2026-05-06 04:51 | -30.41720 | 156.80868 | 39074 ft | 540 kts | 147° |
| 2026-05-06 04:51 | -30.47452 | 156.86524 | 39080 ft | 540 kts | 147° |
| 2026-05-06 04:52 | -30.53145 | 156.92151 | 39070 ft | 539 kts | 147° |
| 2026-05-06 04:52 | -30.58854 | 156.97804 | 39073 ft | 538 kts | 147° |
| 2026-05-06 04:53 | -30.64551 | 157.03451 | 39072 ft | 538 kts | 147° |
| 2026-05-06 04:53 | -30.70218 | 157.09077 | 39071 ft | 538 kts | 147° |
| 2026-05-06 04:54 | -30.75909 | 157.14737 | 39074 ft | 538 kts | 147° |
| 2026-05-06 04:54 | -30.81557 | 157.20363 | 39085 ft | 537 kts | 147° |
| 2026-05-06 04:55 | -30.87233 | 157.26028 | 39069 ft | 535 kts | 147° |
| 2026-05-06 04:55 | -30.92868 | 157.31661 | 39067 ft | 534 kts | 147° |
| 2026-05-06 04:56 | -30.98508 | 157.37306 | 39067 ft | 534 kts | 146° |
| 2026-05-06 04:56 | -31.04153 | 157.42965 | 39064 ft | 534 kts | 146° |
| 2026-05-06 04:57 | -31.09769 | 157.48605 | 39064 ft | 534 kts | 146° |
| 2026-05-06 04:57 | -31.15403 | 157.54274 | 39067 ft | 533 kts | 146° |
| 2026-05-06 04:58 | -31.21019 | 157.59935 | 39064 ft | 532 kts | 146° |
| 2026-05-06 04:58 | -31.26618 | 157.65588 | 39064 ft | 531 kts | 146° |
| 2026-05-06 04:59 | -31.32182 | 157.71211 | 39062 ft | 531 kts | 146° |
| 2026-05-06 04:59 | -31.37778 | 157.76877 | 39061 ft | 531 kts | 146° |
| 2026-05-06 05:00 | -31.43338 | 157.82517 | 39059 ft | 531 kts | 146° |
| 2026-05-06 05:00 | -31.48936 | 157.88204 | 39056 ft | 531 kts | 146° |
| 2026-05-06 05:01 | -31.54493 | 157.93860 | 39062 ft | 530 kts | 146° |
| 2026-05-06 05:01 | -31.60054 | 157.99529 | 39059 ft | 529 kts | 146° |
| 2026-05-06 05:02 | -31.65589 | 158.05179 | 39059 ft | 529 kts | 146° |
| 2026-05-06 05:02 | -31.71162 | 158.10877 | 39059 ft | 529 kts | 146° |
| 2026-05-06 05:03 | -31.76720 | 158.16571 | 39066 ft | 529 kts | 145° |
| 2026-05-06 05:03 | -31.82235 | 158.22229 | 39055 ft | 529 kts | 145° |
| 2026-05-06 05:04 | -31.87793 | 158.27943 | 39058 ft | 528 kts | 145° |
| 2026-05-06 05:04 | -31.93303 | 158.33615 | 39059 ft | 528 kts | 145° |
| 2026-05-06 05:05 | -31.98830 | 158.39314 | 39061 ft | 528 kts | 145° |
| 2026-05-06 05:05 | -32.04357 | 158.45022 | 39061 ft | 528 kts | 145° |
| 2026-05-06 05:06 | -32.09860 | 158.50715 | 39062 ft | 527 kts | 144° |
| 2026-05-06 05:06 | -32.15343 | 158.56399 | 39059 ft | 526 kts | 144° |
| 2026-05-06 05:07 | -32.20857 | 158.62122 | 39061 ft | 526 kts | 144° |
| 2026-05-06 05:07 | -32.26366 | 158.67851 | 39061 ft | 526 kts | 144° |
| 2026-05-06 05:08 | -32.31833 | 158.73544 | 39059 ft | 526 kts | 144° |
| 2026-05-06 05:08 | -32.37331 | 158.79280 | 39082 ft | 527 kts | 144° |
| 2026-05-06 05:09 | -32.42829 | 158.85027 | 39061 ft | 526 kts | 144° |
| 2026-05-06 05:09 | -32.48311 | 158.90766 | 39056 ft | 525 kts | 144° |
| 2026-05-06 05:10 | -32.53756 | 158.96475 | 39061 ft | 524 kts | 144° |
| 2026-05-06 05:10 | -32.59209 | 159.02203 | 39059 ft | 524 kts | 144° |
| 2026-05-06 05:11 | -32.64656 | 159.07934 | 39059 ft | 524 kts | 144° |
| 2026-05-06 05:11 | -32.70129 | 159.13701 | 39068 ft | 524 kts | 143° |
| 2026-05-06 05:12 | -32.75562 | 159.19438 | 39053 ft | 524 kts | 143° |
| 2026-05-06 05:12 | -32.81021 | 159.25211 | 39055 ft | 523 kts | 143° |
| 2026-05-06 05:13 | -32.85513 | 159.29970 | 39056 ft | 522 kts | 143° |
| 2026-05-06 05:13 | -32.91842 | 159.36685 | 39053 ft | 522 kts | 143° |
| 2026-05-06 05:14 | -32.96356 | 159.41481 | 39047 ft | 522 kts | 143° |
| 2026-05-06 05:14 | -33.01782 | 159.47257 | 39056 ft | 522 kts | 143° |
| 2026-05-06 05:15 | -33.07205 | 159.53041 | 39046 ft | 522 kts | 143° |
| 2026-05-06 05:15 | -33.12587 | 159.58789 | 39051 ft | 521 kts | 143° |
| 2026-05-06 05:16 | -33.17982 | 159.64563 | 39049 ft | 520 kts | 143° |
| 2026-05-06 05:16 | -33.23378 | 159.70346 | 39050 ft | 520 kts | 143° |
| 2026-05-06 05:17 | -33.28767 | 159.76132 | 39049 ft | 520 kts | 143° |
| 2026-05-06 05:17 | -33.34126 | 159.81897 | 39047 ft | 520 kts | 142° |
| 2026-05-06 05:18 | -33.39479 | 159.87665 | 39042 ft | 519 kts | 142° |
| 2026-05-06 05:18 | -33.44852 | 159.93465 | 39044 ft | 518 kts | 142° |
| 2026-05-06 05:19 | -33.50179 | 159.99225 | 39042 ft | 518 kts | 142° |
| 2026-05-06 05:19 | -33.55528 | 160.05019 | 39041 ft | 518 kts | 142° |
| 2026-05-06 05:20 | -33.60859 | 160.10804 | 39056 ft | 518 kts | 142° |
| 2026-05-06 05:20 | -33.66196 | 160.16605 | 39040 ft | 517 kts | 142° |
| 2026-05-06 05:21 | -33.71539 | 160.22424 | 39037 ft | 516 kts | 141° |
| 2026-05-06 05:21 | -33.76822 | 160.28187 | 39040 ft | 515 kts | 141° |
| 2026-05-06 05:22 | -33.82149 | 160.34009 | 39037 ft | 515 kts | 141° |
| 2026-05-06 05:22 | -33.87426 | 160.39784 | 39039 ft | 515 kts | 141° |
| 2026-05-06 05:23 | -33.92747 | 160.45620 | 39043 ft | 515 kts | 141° |
| 2026-05-06 05:23 | -34.00673 | 160.54330 | 39026 ft | 515 kts | 141° |
| 2026-05-06 05:24 | -34.05973 | 160.60168 | 39034 ft | 515 kts | 141° |
| 2026-05-06 05:24 | -34.11234 | 160.65973 | 39035 ft | 515 kts | 141° |
| 2026-05-06 05:25 | -34.16516 | 160.71811 | 39034 ft | 515 kts | 141° |
| 2026-05-06 05:25 | -34.21815 | 160.77679 | 39051 ft | 515 kts | 141° |
| 2026-05-06 05:26 | -34.27066 | 160.83504 | 39035 ft | 516 kts | 141° |
| 2026-05-06 05:26 | -34.32365 | 160.89391 | 39027 ft | 516 kts | 140° |
| 2026-05-06 05:27 | -34.37613 | 160.95234 | 39031 ft | 515 kts | 140° |
| 2026-05-06 05:27 | -34.42900 | 161.01131 | 39032 ft | 514 kts | 140° |
| 2026-05-06 05:28 | -34.48131 | 161.06976 | 39029 ft | 514 kts | 140° |
| 2026-05-06 05:28 | -34.53404 | 161.12877 | 39028 ft | 514 kts | 140° |
| 2026-05-06 05:29 | -34.58661 | 161.18771 | 39027 ft | 514 kts | 140° |
| 2026-05-06 05:29 | -34.63886 | 161.24641 | 39023 ft | 514 kts | 140° |
| 2026-05-06 05:30 | -34.69133 | 161.30546 | 39027 ft | 513 kts | 140° |
| 2026-05-06 05:30 | -34.74371 | 161.36451 | 39026 ft | 513 kts | 140° |
| 2026-05-06 05:31 | -34.79597 | 161.42353 | 39031 ft | 513 kts | 140° |
| 2026-05-06 05:31 | -34.84812 | 161.48253 | 39026 ft | 512 kts | 140° |
| 2026-05-06 05:32 | -34.90032 | 161.54170 | 39026 ft | 512 kts | 139° |
| 2026-05-06 05:32 | -34.95217 | 161.60058 | 39019 ft | 511 kts | 140° |
| 2026-05-06 05:33 | -35.00425 | 161.65983 | 39023 ft | 510 kts | 139° |
| 2026-05-06 05:33 | -35.05625 | 161.71909 | 39024 ft | 510 kts | 139° |
| 2026-05-06 05:34 | -35.10783 | 161.77798 | 39039 ft | 510 kts | 139° |
| 2026-05-06 05:34 | -35.15975 | 161.83737 | 39025 ft | 510 kts | 139° |
| 2026-05-06 05:35 | -35.21161 | 161.89680 | 39030 ft | 510 kts | 139° |
| 2026-05-06 05:35 | -35.26315 | 161.95597 | 39026 ft | 510 kts | 139° |
| 2026-05-06 05:36 | -35.31498 | 162.01559 | 39023 ft | 510 kts | 139° |
| 2026-05-06 05:36 | -35.36668 | 162.07516 | 39022 ft | 510 kts | 139° |
| 2026-05-06 05:37 | -35.41817 | 162.13460 | 39022 ft | 510 kts | 139° |
| 2026-05-06 05:37 | -35.46984 | 162.19436 | 39018 ft | 510 kts | 138° |
| 2026-05-06 05:38 | -35.52125 | 162.25393 | 39016 ft | 510 kts | 138° |
| 2026-05-06 05:38 | -35.57287 | 162.31385 | 39014 ft | 510 kts | 138° |
| 2026-05-06 05:39 | -35.62459 | 162.37401 | 39018 ft | 510 kts | 138° |
| 2026-05-06 05:39 | -35.67595 | 162.43385 | 39015 ft | 510 kts | 138° |
| 2026-05-06 05:40 | -35.72755 | 162.49409 | 39016 ft | 511 kts | 138° |
| 2026-05-06 05:40 | -35.77887 | 162.55410 | 39015 ft | 511 kts | 138° |
| 2026-05-06 05:41 | -35.83054 | 162.61465 | 39007 ft | 511 kts | 138° |
| 2026-05-06 05:41 | -35.88198 | 162.67505 | 39012 ft | 511 kts | 138° |
| 2026-05-06 05:42 | -35.93320 | 162.73530 | 39017 ft | 510 kts | 138° |
| 2026-05-06 05:42 | -35.98477 | 162.79606 | 39027 ft | 510 kts | 137° |
| 2026-05-06 05:43 | -36.03581 | 162.85632 | 39016 ft | 511 kts | 137° |
| 2026-05-06 05:43 | -36.08729 | 162.91722 | 39015 ft | 511 kts | 137° |
| 2026-05-06 05:44 | -36.13872 | 162.97817 | 39014 ft | 511 kts | 137° |
| 2026-05-06 05:44 | -36.19031 | 163.03803 | 39015 ft | 510 kts | 139° |
| 2026-05-06 05:45 | -36.24258 | 163.09760 | 39017 ft | 510 kts | 139° |
| 2026-05-06 05:45 | -36.29483 | 163.15730 | 39022 ft | 511 kts | 138° |
| 2026-05-06 05:46 | -36.34688 | 163.21691 | 39022 ft | 512 kts | 138° |
| 2026-05-06 05:46 | -36.39936 | 163.27716 | 39019 ft | 512 kts | 138° |
| 2026-05-06 05:47 | -36.45140 | 163.33702 | 39018 ft | 512 kts | 138° |
| 2026-05-06 05:47 | -36.50373 | 163.39732 | 39020 ft | 513 kts | 138° |
| 2026-05-06 05:48 | -36.55603 | 163.45771 | 39040 ft | 513 kts | 138° |
| 2026-05-06 05:48 | -36.60806 | 163.51790 | 39018 ft | 513 kts | 137° |
| 2026-05-06 05:49 | -36.66052 | 163.57871 | 39021 ft | 513 kts | 137° |
| 2026-05-06 05:49 | -36.71278 | 163.63940 | 39023 ft | 513 kts | 137° |
| 2026-05-06 05:50 | -36.76459 | 163.69970 | 39023 ft | 512 kts | 137° |
| 2026-05-06 05:50 | -36.81687 | 163.76064 | 39018 ft | 512 kts | 137° |
| 2026-05-06 05:51 | -36.86880 | 163.82131 | 39027 ft | 514 kts | 137° |
| 2026-05-06 05:51 | -36.92112 | 163.88255 | 39026 ft | 515 kts | 137° |
| 2026-05-06 05:52 | -36.97358 | 163.94408 | 39029 ft | 515 kts | 137° |
| 2026-05-06 05:52 | -37.02557 | 164.00518 | 39023 ft | 515 kts | 137° |
| 2026-05-06 05:53 | -37.07793 | 164.06683 | 39026 ft | 516 kts | 137° |
| 2026-05-06 05:53 | -37.12999 | 164.12826 | 39037 ft | 517 kts | 137° |
| 2026-05-06 05:54 | -37.18251 | 164.19034 | 39031 ft | 519 kts | 137° |
| 2026-05-06 05:54 | -37.23513 | 164.25267 | 39034 ft | 519 kts | 137° |
| 2026-05-06 05:55 | -37.28741 | 164.31473 | 39034 ft | 519 kts | 137° |
| 2026-05-06 05:55 | -37.33996 | 164.37723 | 39037 ft | 519 kts | 137° |
| 2026-05-06 05:56 | -37.39245 | 164.43978 | 39040 ft | 518 kts | 137° |
| 2026-05-06 05:56 | -37.44448 | 164.50191 | 39042 ft | 518 kts | 137° |
| 2026-05-06 05:57 | -37.49695 | 164.56470 | 39042 ft | 518 kts | 137° |
| 2026-05-06 05:57 | -37.54885 | 164.62693 | 39042 ft | 518 kts | 137° |
| 2026-05-06 05:58 | -37.60109 | 164.68969 | 39045 ft | 518 kts | 136° |
| 2026-05-06 05:58 | -37.65338 | 164.75264 | 39046 ft | 518 kts | 137° |
| 2026-05-06 05:59 | -37.70540 | 164.81539 | 39049 ft | 522 kts | 137° |
| 2026-05-06 05:59 | -37.75817 | 164.87919 | 39047 ft | 524 kts | 137° |
| 2026-05-06 06:00 | -37.81062 | 164.94273 | 39056 ft | 525 kts | 137° |
| 2026-05-06 06:00 | -37.86334 | 165.00672 | 39056 ft | 525 kts | 137° |
| 2026-05-06 06:01 | -37.91607 | 165.07086 | 39057 ft | 525 kts | 137° |
| 2026-05-06 06:01 | -37.96837 | 165.13464 | 39054 ft | 522 kts | 139° |
| 2026-05-06 06:02 | -38.02063 | 165.19848 | 39054 ft | 519 kts | 139° |
| 2026-05-06 06:02 | -38.06399 | 165.25153 | 39053 ft | 519 kts | 139° |
| 2026-05-06 06:03 | -38.11601 | 165.31532 | 39048 ft | 519 kts | 139° |
| 2026-05-06 06:03 | -38.16767 | 165.37879 | 39053 ft | 519 kts | 139° |
| 2026-05-06 06:04 | -38.21964 | 165.44277 | 39067 ft | 519 kts | 138° |
| 2026-05-06 06:04 | -38.27115 | 165.50634 | 39061 ft | 518 kts | 138° |
| 2026-05-06 06:05 | -38.32283 | 165.57024 | 39054 ft | 517 kts | 138° |
| 2026-05-06 06:05 | -38.37451 | 165.63427 | 39054 ft | 517 kts | 138° |
| 2026-05-06 06:06 | -38.42579 | 165.69795 | 39055 ft | 517 kts | 138° |
| 2026-05-06 06:06 | -38.47748 | 165.76226 | 39057 ft | 517 kts | 138° |
| 2026-05-06 06:07 | -38.52881 | 165.82626 | 39067 ft | 515 kts | 137° |
| 2026-05-06 06:07 | -38.57978 | 165.88995 | 39063 ft | 514 kts | 137° |
| 2026-05-06 06:08 | -38.63092 | 165.95399 | 39069 ft | 514 kts | 137° |
| 2026-05-06 06:08 | -38.68202 | 166.01811 | 39066 ft | 514 kts | 137° |
| 2026-05-06 06:09 | -38.73278 | 166.08193 | 39074 ft | 514 kts | 137° |
| 2026-05-06 06:09 | -38.78384 | 166.14627 | 39053 ft | 514 kts | 137° |
| 2026-05-06 06:10 | -38.83482 | 166.21065 | 39073 ft | 512 kts | 137° |
| 2026-05-06 06:10 | -38.88519 | 166.27439 | 39079 ft | 511 kts | 137° |
| 2026-05-06 06:11 | -38.93592 | 166.33872 | 39077 ft | 511 kts | 137° |
| 2026-05-06 06:11 | -38.98648 | 166.40297 | 39083 ft | 511 kts | 137° |
| 2026-05-06 06:12 | -39.03688 | 166.46716 | 39090 ft | 511 kts | 137° |
| 2026-05-06 06:12 | -39.08742 | 166.53165 | 39090 ft | 511 kts | 137° |
| 2026-05-06 06:13 | -39.13668 | 166.59466 | 39090 ft | 511 kts | 137° |
| 2026-05-06 06:13 | -39.18712 | 166.65931 | 39093 ft | 511 kts | 137° |
| 2026-05-06 06:14 | -39.23751 | 166.72403 | 39093 ft | 511 kts | 137° |
| 2026-05-06 06:14 | -39.28766 | 166.78858 | 39100 ft | 510 kts | 137° |
| 2026-05-06 06:15 | -39.33800 | 166.85352 | 39100 ft | 511 kts | 136° |
| 2026-05-06 06:15 | -39.38793 | 166.91806 | 39099 ft | 510 kts | 137° |
| 2026-05-06 06:16 | -39.43818 | 166.98316 | 39107 ft | 510 kts | 136° |
| 2026-05-06 06:16 | -39.48835 | 167.04829 | 39107 ft | 509 kts | 136° |
| 2026-05-06 06:17 | -39.53812 | 167.11304 | 39127 ft | 509 kts | 136° |
| 2026-05-06 06:17 | -39.58822 | 167.17836 | 39113 ft | 510 kts | 136° |
| 2026-05-06 06:18 | -39.63834 | 167.24386 | 39119 ft | 510 kts | 136° |
| 2026-05-06 06:18 | -39.68830 | 167.30929 | 39124 ft | 510 kts | 136° |
| 2026-05-06 06:19 | -39.73798 | 167.37449 | 39127 ft | 510 kts | 136° |
| 2026-05-06 06:19 | -39.78798 | 167.44026 | 39127 ft | 510 kts | 136° |
| 2026-05-06 06:20 | -39.83772 | 167.50583 | 39127 ft | 510 kts | 136° |
| 2026-05-06 06:20 | -39.88728 | 167.57131 | 39135 ft | 510 kts | 136° |
| 2026-05-06 06:21 | -39.93710 | 167.63727 | 39131 ft | 509 kts | 136° |
| 2026-05-06 06:21 | -39.98682 | 167.70324 | 39141 ft | 508 kts | 136° |
| 2026-05-06 06:22 | -40.03605 | 167.76872 | 39140 ft | 508 kts | 136° |
| 2026-05-06 06:22 | -40.08566 | 167.83484 | 39146 ft | 508 kts | 136° |
| 2026-05-06 06:23 | -40.13517 | 167.90097 | 39146 ft | 508 kts | 136° |
| 2026-05-06 06:23 | -40.18428 | 167.96671 | 39149 ft | 508 kts | 136° |
| 2026-05-06 06:24 | -40.23377 | 168.03311 | 39153 ft | 507 kts | 136° |
| 2026-05-06 06:24 | -40.28280 | 168.09904 | 39157 ft | 507 kts | 136° |
| 2026-05-06 06:25 | -40.33196 | 168.16528 | 39160 ft | 507 kts | 136° |
| 2026-05-06 06:26 | -40.40558 | 168.26477 | 39167 ft | 507 kts | 136° |
| 2026-05-06 06:26 | -40.45478 | 168.33144 | 39160 ft | 507 kts | 136° |
| 2026-05-06 06:27 | -40.50382 | 168.39806 | 39170 ft | 507 kts | 136° |
| 2026-05-06 06:27 | -40.55266 | 168.46453 | 39170 ft | 507 kts | 136° |
| 2026-05-06 06:28 | -40.60173 | 168.53149 | 39170 ft | 507 kts | 136° |
| 2026-05-06 06:28 | -40.65048 | 168.59814 | 39178 ft | 507 kts | 136° |
| 2026-05-06 06:29 | -40.69951 | 168.66534 | 39178 ft | 507 kts | 136° |
| 2026-05-06 06:29 | -40.74839 | 168.73249 | 39183 ft | 507 kts | 136° |
| 2026-05-06 06:30 | -40.79722 | 168.79971 | 39182 ft | 507 kts | 136° |
| 2026-05-06 06:30 | -40.84586 | 168.86682 | 39185 ft | 508 kts | 136° |
| 2026-05-06 06:31 | -40.89489 | 168.93463 | 39183 ft | 509 kts | 136° |
| 2026-05-06 06:31 | -40.94348 | 169.00199 | 39187 ft | 509 kts | 136° |
| 2026-05-06 06:32 | -40.99232 | 169.06983 | 39186 ft | 509 kts | 136° |
| 2026-05-06 06:32 | -41.04126 | 169.13799 | 39192 ft | 509 kts | 136° |
| 2026-05-06 06:33 | -41.08986 | 169.20582 | 39185 ft | 510 kts | 136° |
| 2026-05-06 06:33 | -41.13848 | 169.27383 | 39196 ft | 510 kts | 136° |
| 2026-05-06 06:34 | -41.18735 | 169.34235 | 39189 ft | 510 kts | 136° |
| 2026-05-06 06:34 | -41.23622 | 169.41104 | 39196 ft | 510 kts | 136° |
| 2026-05-06 06:35 | -41.28501 | 169.47977 | 39196 ft | 510 kts | 136° |
| 2026-05-06 06:35 | -41.33347 | 169.54820 | 39202 ft | 510 kts | 136° |
| 2026-05-06 06:36 | -41.38211 | 169.61704 | 39214 ft | 510 kts | 136° |
| 2026-05-06 06:36 | -41.43053 | 169.68572 | 39203 ft | 510 kts | 136° |
| 2026-05-06 06:37 | -41.47918 | 169.75490 | 39219 ft | 510 kts | 136° |
| 2026-05-06 06:37 | -41.52743 | 169.82368 | 39210 ft | 509 kts | 136° |
| 2026-05-06 06:38 | -41.57561 | 169.89252 | 39220 ft | 506 kts | 136° |
| 2026-05-06 06:38 | -41.62369 | 169.96136 | 39220 ft | 505 kts | 136° |
| 2026-05-06 06:39 | -41.67148 | 170.02995 | 39228 ft | 505 kts | 136° |
| 2026-05-06 06:39 | -41.72044 | 170.09729 | 39227 ft | 501 kts | 143° |
| 2026-05-06 06:40 | -41.77393 | 170.15625 | 39222 ft | 500 kts | 145° |
| 2026-05-06 06:40 | -41.82823 | 170.21486 | 39235 ft | 498 kts | 145° |
| 2026-05-06 06:41 | -41.88186 | 170.27301 | 39236 ft | 498 kts | 145° |
| 2026-05-06 06:41 | -41.93586 | 170.33176 | 39241 ft | 497 kts | 145° |
| 2026-05-06 06:42 | -41.98931 | 170.39006 | 39244 ft | 497 kts | 145° |
| 2026-05-06 06:42 | -42.04306 | 170.44882 | 39247 ft | 499 kts | 145° |
| 2026-05-06 06:43 | -42.09704 | 170.50798 | 39249 ft | 500 kts | 145° |
| 2026-05-06 06:43 | -42.15106 | 170.56732 | 39246 ft | 499 kts | 145° |
| 2026-05-06 06:44 | -42.20450 | 170.62617 | 39254 ft | 497 kts | 145° |
| 2026-05-06 06:44 | -42.25809 | 170.68530 | 39259 ft | 497 kts | 145° |
| 2026-05-06 06:45 | -42.31165 | 170.74452 | 39250 ft | 497 kts | 145° |
| 2026-05-06 06:45 | -42.36514 | 170.80380 | 39264 ft | 497 kts | 145° |
| 2026-05-06 06:46 | -42.41826 | 170.86283 | 39264 ft | 497 kts | 145° |
| 2026-05-06 06:46 | -42.47189 | 170.92253 | 39269 ft | 497 kts | 145° |
| 2026-05-06 06:47 | -42.52475 | 170.98154 | 39271 ft | 493 kts | 145° |
| 2026-05-06 06:47 | -42.57778 | 171.04086 | 39271 ft | 493 kts | 145° |
| 2026-05-06 06:48 | -42.63041 | 171.09985 | 39280 ft | 493 kts | 145° |
| 2026-05-06 06:48 | -42.68337 | 171.15935 | 39294 ft | 493 kts | 145° |
| 2026-05-06 06:49 | -42.73598 | 171.21860 | 39285 ft | 493 kts | 145° |
| 2026-05-06 06:49 | -42.78885 | 171.27828 | 39282 ft | 493 kts | 144° |
| 2026-05-06 06:50 | -42.84139 | 171.33772 | 39281 ft | 493 kts | 145° |
| 2026-05-06 06:50 | -42.88533 | 171.38754 | 39275 ft | 493 kts | 145° |
| 2026-05-06 06:51 | -42.93815 | 171.44755 | 39274 ft | 493 kts | 145° |
| 2026-05-06 06:51 | -42.99649 | 171.52024 | 38996 ft | 490 kts | 132° |
| 2026-05-06 06:51 | -43.00980 | 171.54509 | 38363 ft | 484 kts | 128° |
| 2026-05-06 06:52 | -43.02841 | 171.58387 | 36849 ft | 485 kts | 125° |
| 2026-05-06 06:52 | -43.04660 | 171.62317 | 35194 ft | 490 kts | 124° |
| 2026-05-06 06:52 | -43.06486 | 171.66267 | 33536 ft | 492 kts | 124° |
| 2026-05-06 06:52 | -43.08308 | 171.70196 | 31661 ft | 496 kts | 124° |
| 2026-05-06 06:53 | -43.10175 | 171.74213 | 29718 ft | 499 kts | 124° |
| 2026-05-06 06:53 | -43.12042 | 171.78229 | 27581 ft | 498 kts | 122° |
| 2026-05-06 06:53 | -43.13601 | 171.82397 | 25512 ft | 496 kts | 111° |
| 2026-05-06 06:53 | -43.14806 | 171.86806 | 23452 ft | 492 kts | 108° |
| 2026-05-06 06:54 | -43.15927 | 171.91256 | 21112 ft | 487 kts | 108° |
| 2026-05-06 06:54 | -43.17009 | 171.95595 | 19319 ft | 472 kts | 108° |
| 2026-05-06 06:54 | -43.18038 | 171.99702 | 18625 ft | 436 kts | 108° |
| 2026-05-06 06:54 | -43.18970 | 172.03410 | 18627 ft | 386 kts | 108° |
| 2026-05-06 06:55 | -43.19792 | 172.06676 | 18648 ft | 348 kts | 107° |
| 2026-05-06 06:55 | -43.20546 | 172.09669 | 18666 ft | 316 kts | 107° |
| 2026-05-06 06:55 | -43.21235 | 172.12409 | 18629 ft | 293 kts | 107° |
| 2026-05-06 06:55 | -43.21892 | 172.15035 | 17974 ft | 294 kts | 107° |
| 2026-05-06 06:56 | -43.22567 | 172.17744 | 17010 ft | 303 kts | 107° |
| 2026-05-06 06:56 | -43.23250 | 172.20483 | 16015 ft | 311 kts | 107° |
| 2026-05-06 06:56 | -43.23964 | 172.23328 | 14927 ft | 318 kts | 107° |
| 2026-05-06 06:56 | -43.24690 | 172.26220 | 13901 ft | 320 kts | 107° |
| 2026-05-06 06:57 | -43.25414 | 172.29102 | 12881 ft | 317 kts | 108° |
| 2026-05-06 06:57 | -43.26125 | 172.31936 | 11919 ft | 311 kts | 108° |
| 2026-05-06 06:57 | -43.26816 | 172.34698 | 11020 ft | 307 kts | 108° |
| 2026-05-06 06:57 | -43.27502 | 172.37448 | 10128 ft | 301 kts | 109° |
| 2026-05-06 06:58 | -43.28180 | 172.40168 | 9124 ft | 299 kts | 108° |
| 2026-05-06 06:58 | -43.28822 | 172.42750 | 8840 ft | 274 kts | 109° |
| 2026-05-06 06:58 | -43.29403 | 172.45090 | 8727 ft | 249 kts | 110° |
| 2026-05-06 06:58 | -43.30065 | 172.47258 | 8177 ft | 246 kts | 116° |
| 2026-05-06 06:59 | -43.30845 | 172.49404 | 7426 ft | 253 kts | 118° |
| 2026-05-06 06:59 | -43.31650 | 172.51540 | 6724 ft | 255 kts | 118° |
| 2026-05-06 06:59 | -43.32464 | 172.53701 | 5874 ft | 254 kts | 118° |
| 2026-05-06 06:59 | -43.33276 | 172.55860 | 5014 ft | 253 kts | 118° |
| 2026-05-06 07:00 | -43.34057 | 172.57947 | 4447 ft | 237 kts | 118° |
| 2026-05-06 07:00 | -43.34780 | 172.59885 | 3941 ft | 220 kts | 118° |
| 2026-05-06 07:00 | -43.35469 | 172.61731 | 3237 ft | 215 kts | 118° |
| 2026-05-06 07:00 | -43.36163 | 172.63530 | 2500 ft | 212 kts | 123° |
| 2026-05-06 07:01 | -43.37180 | 172.64809 | 2105 ft | 187 kts | 162° |
| 2026-05-06 07:01 | -43.38329 | 172.64748 | 2005 ft | 149 kts | 202° |
| 2026-05-06 07:01 | -43.39189 | 172.64244 | 2004 ft | 127 kts | 212° |
| 2026-05-06 07:01 | -43.39903 | 172.63573 | 1997 ft | 123 kts | 223° |
| 2026-05-06 07:02 | -43.40566 | 172.62826 | 1871 ft | 124 kts | 224° |
| 2026-05-06 07:02 | -43.41228 | 172.62062 | 1703 ft | 124 kts | 224° |
| 2026-05-06 07:02 | -43.41893 | 172.61297 | 1526 ft | 124 kts | 223° |
| 2026-05-06 07:02 | -43.42555 | 172.60535 | 1363 ft | 124 kts | 223° |
| 2026-05-06 07:03 | -43.43214 | 172.59775 | 1199 ft | 125 kts | 223° |
| 2026-05-06 07:03 | -43.43880 | 172.59006 | 1034 ft | 125 kts | 221° |
| 2026-05-06 07:03 | -43.44546 | 172.58236 | 871 ft | 125 kts | 220° |
| 2026-05-06 07:03 | -43.45204 | 172.57472 | 695 ft | 125 kts | 220° |
| 2026-05-06 07:04 | -43.45863 | 172.56695 | 577 ft | 126 kts | 220° |
| 2026-05-06 07:04 | -43.46531 | 172.55923 | 387 ft | 124 kts | 218° |
| 2026-05-06 07:04 | -43.47194 | 172.55161 | 213 ft | 124 kts | 219° |
| 2026-05-06 07:04 | -43.47847 | 172.54416 | 110 ft | 116 kts | 218° |
| 2026-05-06 07:05 | -43.48317 | 172.53874 | 110 ft | 48 kts | 219° |
| 2026-05-06 07:05 | -43.48484 | 172.53708 | 112 ft | 3 kts | 149° |
| 2026-05-06 07:05 | -43.48474 | 172.53831 | 111 ft | 21 kts | 74° |
| 2026-05-06 07:05 | -43.48496 | 172.54035 | 109 ft | 24 kts | 120° |
| 2026-05-06 07:06 | -43.48592 | 172.54072 | 112 ft | 3 kts | 193° |
| 2026-05-06 07:06 | -43.48650 | 172.54044 | 113 ft | 0 kts | 206° |